sensor_id;sensor_type;location;lat;lon;timestamp;temperature;humidity
18252;DHT22;26917;52.328;20.878;2023-03-16T00:00:25;-1.40;99.90
18252;DHT22;26917;52.328;20.878;2023-03-16T00:02:54;-1.40;99.90
18252;DHT22;26917;52.328;20.878;2023-03-16T00:05:23;-1.00;99.90
18252;DHT22;26917;52.328;20.878;2023-03-16T00:07:51;-1.40;99.90
18252;DHT22;26917;52.328;20.878;2023-03-16T00:10:21;-1.40;99.90
18252;DHT22;26917;52.328;20.878;2023-03-16T00:12:53;-1.00;99.90
18252;DHT22;26917;52.328;20.878;2023-03-16T00:15:23;-1.50;99.90
18252;DHT22;26917;52.328;20.878;2023-03-16T00:17:51;-0.90;99.90
18252;DHT22;26917;52.328;20.878;2023-03-16T00:20:20;-1.50;99.90
18252;DHT22;26917;52.328;20.878;2023-03-16T00:22:49;-0.90;99.90
18252;DHT22;26917;52.328;20.878;2023-03-16T00:25:17;-1.00;99.90
18252;DHT22;26917;52.328;20.878;2023-03-16T00:27:47;-1.60;99.90
18252;DHT22;26917;52.328;20.878;2023-03-16T00:30:16;-1.70;99.90
18252;DHT22;26917;52.328;20.878;2023-03-16T00:32:44;-1.60;99.90
18252;DHT22;26917;52.328;20.878;2023-03-16T00:35:16;-1.30;99.90
18252;DHT22;26917;52.328;20.878;2023-03-16T00:37:44;-1.70;99.90
18252;DHT22;26917;52.328;20.878;2023-03-16T00:40:17;-1.50;99.90
18252;DHT22;26917;52.328;20.878;2023-03-16T00:42:46;-1.70;99.90
18252;DHT22;26917;52.328;20.878;2023-03-16T00:45:15;-1.70;99.90
18252;DHT22;26917;52.328;20.878;2023-03-16T00:47:43;-1.80;99.90
18252;DHT22;26917;52.328;20.878;2023-03-16T00:50:12;-2.00;99.90
18252;DHT22;26917;52.328;20.878;2023-03-16T00:52:41;-2.00;99.90
18252;DHT22;26917;52.328;20.878;2023-03-16T00:55:09;-2.20;99.90
18252;DHT22;26917;52.328;20.878;2023-03-16T00:57:37;-1.90;99.90
18252;DHT22;26917;52.328;20.878;2023-03-16T01:00:09;-1.60;99.90
18252;DHT22;26917;52.328;20.878;2023-03-16T01:02:41;-1.90;99.90
18252;DHT22;26917;52.328;20.878;2023-03-16T01:05:11;-1.90;99.90
18252;DHT22;26917;52.328;20.878;2023-03-16T01:07:41;-1.90;99.90
18252;DHT22;26917;52.328;20.878;2023-03-16T01:10:11;-2.00;99.90
18252;DHT22;26917;52.328;20.878;2023-03-16T01:12:39;-1.90;99.90
18252;DHT22;26917;52.328;20.878;2023-03-16T01:15:12;-1.80;99.90
18252;DHT22;26917;52.328;20.878;2023-03-16T01:17:40;-1.90;99.90
18252;DHT22;26917;52.328;20.878;2023-03-16T01:20:10;-2.00;99.90
18252;DHT22;26917;52.328;20.878;2023-03-16T01:22:40;-2.00;99.90
18252;DHT22;26917;52.328;20.878;2023-03-16T01:25:10;-2.00;99.90
18252;DHT22;26917;52.328;20.878;2023-03-16T01:27:40;-2.00;99.90
18252;DHT22;26917;52.328;20.878;2023-03-16T01:30:11;-1.40;99.90
18252;DHT22;26917;52.328;20.878;2023-03-16T01:32:40;-2.00;99.90
18252;DHT22;26917;52.328;20.878;2023-03-16T01:35:12;-2.00;99.90
18252;DHT22;26917;52.328;20.878;2023-03-16T01:37:40;-2.00;99.90
18252;DHT22;26917;52.328;20.878;2023-03-16T01:40:14;-2.00;99.90
18252;DHT22;26917;52.328;20.878;2023-03-16T01:42:47;-2.10;99.90
18252;DHT22;26917;52.328;20.878;2023-03-16T01:46:06;-1.80;99.90
18252;DHT22;26917;52.328;20.878;2023-03-16T01:48:55;-2.20;99.90
18252;DHT22;26917;52.328;20.878;2023-03-16T01:51:32;-2.20;99.90
18252;DHT22;26917;52.328;20.878;2023-03-16T01:54:03;-2.20;99.90
18252;DHT22;26917;52.328;20.878;2023-03-16T01:56:37;-2.20;99.90
18252;DHT22;26917;52.328;20.878;2023-03-16T01:59:10;-2.00;99.90
18252;DHT22;26917;52.328;20.878;2023-03-16T02:01:41;-2.20;99.90
18252;DHT22;26917;52.328;20.878;2023-03-16T02:04:18;-2.10;99.90
18252;DHT22;26917;52.328;20.878;2023-03-16T02:06:56;-2.00;99.90
18252;DHT22;26917;52.328;20.878;2023-03-16T02:09:25;-2.20;99.90
18252;DHT22;26917;52.328;20.878;2023-03-16T02:11:54;-2.30;99.90
18252;DHT22;26917;52.328;20.878;2023-03-16T02:14:24;-2.30;99.90
18252;DHT22;26917;52.328;20.878;2023-03-16T02:16:54;-2.30;99.90
18252;DHT22;26917;52.328;20.878;2023-03-16T02:19:31;-2.30;99.90
18252;DHT22;26917;52.328;20.878;2023-03-16T02:22:04;-2.30;99.90
18252;DHT22;26917;52.328;20.878;2023-03-16T02:24:33;-2.30;99.90
18252;DHT22;26917;52.328;20.878;2023-03-16T02:27:05;-2.20;99.90
18252;DHT22;26917;52.328;20.878;2023-03-16T02:29:56;-2.30;99.90
18252;DHT22;26917;52.328;20.878;2023-03-16T02:32:32;-2.30;99.90
18252;DHT22;26917;52.328;20.878;2023-03-16T02:35:01;-2.10;99.90
18252;DHT22;26917;52.328;20.878;2023-03-16T02:37:30;-1.60;99.90
18252;DHT22;26917;52.328;20.878;2023-03-16T02:40:00;-2.00;99.90
18252;DHT22;26917;52.328;20.878;2023-03-16T02:42:32;-2.30;99.90
18252;DHT22;26917;52.328;20.878;2023-03-16T02:45:02;-2.50;99.90
18252;DHT22;26917;52.328;20.878;2023-03-16T02:47:36;-2.40;99.90
18252;DHT22;26917;52.328;20.878;2023-03-16T02:50:09;-2.40;99.90
18252;DHT22;26917;52.328;20.878;2023-03-16T02:52:38;-2.50;99.90
18252;DHT22;26917;52.328;20.878;2023-03-16T02:55:08;-1.80;99.90
18252;DHT22;26917;52.328;20.878;2023-03-16T02:57:36;-2.60;99.90
18252;DHT22;26917;52.328;20.878;2023-03-16T03:00:13;-1.90;99.90
18252;DHT22;26917;52.328;20.878;2023-03-16T03:02:47;-2.50;99.90
18252;DHT22;26917;52.328;20.878;2023-03-16T03:05:16;-2.30;99.90
18252;DHT22;26917;52.328;20.878;2023-03-16T03:07:44;-2.60;99.90
18252;DHT22;26917;52.328;20.878;2023-03-16T03:10:12;-2.10;99.90
18252;DHT22;26917;52.328;20.878;2023-03-16T03:12:41;-1.90;99.90
18252;DHT22;26917;52.328;20.878;2023-03-16T03:15:11;-2.10;99.90
18252;DHT22;26917;52.328;20.878;2023-03-16T03:17:49;-2.60;99.90
18252;DHT22;26917;52.328;20.878;2023-03-16T03:20:17;-2.30;99.90
18252;DHT22;26917;52.328;20.878;2023-03-16T03:22:47;-2.50;99.90
18252;DHT22;26917;52.328;20.878;2023-03-16T03:25:17;-2.50;99.90
18252;DHT22;26917;52.328;20.878;2023-03-16T03:27:46;-2.50;99.90
18252;DHT22;26917;52.328;20.878;2023-03-16T03:30:22;-2.60;99.90
18252;DHT22;26917;52.328;20.878;2023-03-16T03:32:50;-2.60;99.90
18252;DHT22;26917;52.328;20.878;2023-03-16T03:35:20;-2.10;99.90
18252;DHT22;26917;52.328;20.878;2023-03-16T03:37:49;-1.70;99.90
18252;DHT22;26917;52.328;20.878;2023-03-16T03:40:19;-2.60;99.90
18252;DHT22;26917;52.328;20.878;2023-03-16T03:42:54;-2.50;99.90
18252;DHT22;26917;52.328;20.878;2023-03-16T03:45:25;-2.20;99.90
18252;DHT22;26917;52.328;20.878;2023-03-16T03:47:53;-1.50;99.90
18252;DHT22;26917;52.328;20.878;2023-03-16T03:50:23;-1.70;99.90
18252;DHT22;26917;52.328;20.878;2023-03-16T03:53:11;-2.60;99.90
18252;DHT22;26917;52.328;20.878;2023-03-16T03:56:09;-2.50;99.90
18252;DHT22;26917;52.328;20.878;2023-03-16T03:58:38;-2.90;99.90
18252;DHT22;26917;52.328;20.878;2023-03-16T04:01:09;-2.60;99.90
18252;DHT22;26917;52.328;20.878;2023-03-16T04:03:37;-2.60;99.90
18252;DHT22;26917;52.328;20.878;2023-03-16T04:06:07;-2.70;99.90
18252;DHT22;26917;52.328;20.878;2023-03-16T04:08:35;-2.50;99.90
18252;DHT22;26917;52.328;20.878;2023-03-16T04:11:08;-2.30;99.90
18252;DHT22;26917;52.328;20.878;2023-03-16T04:13:38;-1.90;99.90
18252;DHT22;26917;52.328;20.878;2023-03-16T04:16:09;-2.60;99.90
18252;DHT22;26917;52.328;20.878;2023-03-16T04:18:45;-2.30;99.90
18252;DHT22;26917;52.328;20.878;2023-03-16T04:21:14;-2.60;99.90
18252;DHT22;26917;52.328;20.878;2023-03-16T04:23:45;-2.70;99.90
18252;DHT22;26917;52.328;20.878;2023-03-16T04:26:15;-1.60;99.90
18252;DHT22;26917;52.328;20.878;2023-03-16T04:28:46;-2.80;99.90
18252;DHT22;26917;52.328;20.878;2023-03-16T04:31:18;-2.80;99.90
18252;DHT22;26917;52.328;20.878;2023-03-16T04:33:47;-1.80;99.90
18252;DHT22;26917;52.328;20.878;2023-03-16T04:36:16;-2.70;99.90
18252;DHT22;26917;52.328;20.878;2023-03-16T04:38:44;-2.30;99.90
18252;DHT22;26917;52.328;20.878;2023-03-16T04:41:13;-1.00;99.90
18252;DHT22;26917;52.328;20.878;2023-03-16T04:43:50;-2.70;99.90
18252;DHT22;26917;52.328;20.878;2023-03-16T04:46:23;-2.00;99.90
18252;DHT22;26917;52.328;20.878;2023-03-16T04:48:53;-1.30;99.90
18252;DHT22;26917;52.328;20.878;2023-03-16T04:51:26;-2.70;99.90
18252;DHT22;26917;52.328;20.878;2023-03-16T04:54:03;-2.50;99.90
18252;DHT22;26917;52.328;20.878;2023-03-16T04:56:34;-2.50;99.90
18252;DHT22;26917;52.328;20.878;2023-03-16T04:59:08;-2.80;99.90
18252;DHT22;26917;52.328;20.878;2023-03-16T05:02:10;-2.70;99.90
18252;DHT22;26917;52.328;20.878;2023-03-16T05:04:38;-2.60;99.90
18252;DHT22;26917;52.328;20.878;2023-03-16T05:07:10;-2.30;99.90
18252;DHT22;26917;52.328;20.878;2023-03-16T05:09:42;-2.70;99.90
18252;DHT22;26917;52.328;20.878;2023-03-16T05:12:11;-3.00;99.90
18252;DHT22;26917;52.328;20.878;2023-03-16T05:14:40;-2.70;99.90
18252;DHT22;26917;52.328;20.878;2023-03-16T05:17:36;-2.40;99.90
18252;DHT22;26917;52.328;20.878;2023-03-16T05:20:05;-2.60;99.90
18252;DHT22;26917;52.328;20.878;2023-03-16T05:22:39;-2.70;99.90
18252;DHT22;26917;52.328;20.878;2023-03-16T05:25:19;-2.60;99.90
18252;DHT22;26917;52.328;20.878;2023-03-16T05:27:51;-1.70;99.90
18252;DHT22;26917;52.328;20.878;2023-03-16T05:30:33;-1.50;99.90
18252;DHT22;26917;52.328;20.878;2023-03-16T05:33:08;-2.00;99.90
18252;DHT22;26917;52.328;20.878;2023-03-16T05:35:37;-2.60;99.90
18252;DHT22;26917;52.328;20.878;2023-03-16T05:38:09;-1.60;99.90
18252;DHT22;26917;52.328;20.878;2023-03-16T05:40:40;-2.40;99.90
18252;DHT22;26917;52.328;20.878;2023-03-16T05:43:17;-2.70;99.90
18252;DHT22;26917;52.328;20.878;2023-03-16T05:45:49;-1.60;99.90
18252;DHT22;26917;52.328;20.878;2023-03-16T05:48:20;-2.30;99.90
18252;DHT22;26917;52.328;20.878;2023-03-16T05:50:55;-2.30;99.90
18252;DHT22;26917;52.328;20.878;2023-03-16T05:53:27;-2.00;99.90
18252;DHT22;26917;52.328;20.878;2023-03-16T05:56:04;-2.30;99.90
18252;DHT22;26917;52.328;20.878;2023-03-16T05:58:37;-2.20;99.90
18252;DHT22;26917;52.328;20.878;2023-03-16T06:01:07;-1.80;99.90
18252;DHT22;26917;52.328;20.878;2023-03-16T06:03:42;-2.10;99.90
18252;DHT22;26917;52.328;20.878;2023-03-16T06:06:16;-1.70;99.90
18252;DHT22;26917;52.328;20.878;2023-03-16T06:08:53;-1.50;99.90
18252;DHT22;26917;52.328;20.878;2023-03-16T06:11:23;-1.90;99.90
18252;DHT22;26917;52.328;20.878;2023-03-16T06:13:52;-0.70;99.90
18252;DHT22;26917;52.328;20.878;2023-03-16T06:16:23;-1.60;99.90
18252;DHT22;26917;52.328;20.878;2023-03-16T06:18:53;-1.50;99.90
18252;DHT22;26917;52.328;20.878;2023-03-16T06:21:26;-1.10;99.90
18252;DHT22;26917;52.328;20.878;2023-03-16T06:23:59;-2.20;99.90
18252;DHT22;26917;52.328;20.878;2023-03-16T06:26:28;-2.00;99.90
18252;DHT22;26917;52.328;20.878;2023-03-16T06:28:57;-1.30;99.90
18252;DHT22;26917;52.328;20.878;2023-03-16T06:31:25;-1.40;99.90
18252;DHT22;26917;52.328;20.878;2023-03-16T06:33:55;-1.10;99.90
18252;DHT22;26917;52.328;20.878;2023-03-16T06:36:23;-1.40;99.90
18252;DHT22;26917;52.328;20.878;2023-03-16T06:38:55;-1.20;99.90
18252;DHT22;26917;52.328;20.878;2023-03-16T06:41:28;-0.90;99.90
18252;DHT22;26917;52.328;20.878;2023-03-16T06:43:58;-0.90;99.90
18252;DHT22;26917;52.328;20.878;2023-03-16T06:46:26;-0.50;99.90
18252;DHT22;26917;52.328;20.878;2023-03-16T06:48:58;0.40;99.90
18252;DHT22;26917;52.328;20.878;2023-03-16T06:51:28;1.70;99.90
18252;DHT22;26917;52.328;20.878;2023-03-16T06:53:57;2.50;99.90
18252;DHT22;26917;52.328;20.878;2023-03-16T06:56:26;3.40;99.90
18252;DHT22;26917;52.328;20.878;2023-03-16T06:58:55;2.40;99.90
18252;DHT22;26917;52.328;20.878;2023-03-16T07:01:26;2.10;99.90
18252;DHT22;26917;52.328;20.878;2023-03-16T07:03:54;2.10;99.90
18252;DHT22;26917;52.328;20.878;2023-03-16T07:06:28;2.40;99.90
18252;DHT22;26917;52.328;20.878;2023-03-16T07:08:57;2.60;99.90
18252;DHT22;26917;52.328;20.878;2023-03-16T07:11:29;3.30;99.90
18252;DHT22;26917;52.328;20.878;2023-03-16T07:13:58;2.20;99.90
18252;DHT22;26917;52.328;20.878;2023-03-16T07:16:29;2.90;99.90
18252;DHT22;26917;52.328;20.878;2023-03-16T07:19:01;1.50;99.90
18252;DHT22;26917;52.328;20.878;2023-03-16T07:21:33;1.50;99.90
18252;DHT22;26917;52.328;20.878;2023-03-16T07:24:11;1.30;99.90
18252;DHT22;26917;52.328;20.878;2023-03-16T07:26:40;1.10;99.90
18252;DHT22;26917;52.328;20.878;2023-03-16T07:29:12;2.00;99.90
18252;DHT22;26917;52.328;20.878;2023-03-16T07:31:42;0.80;99.90
18252;DHT22;26917;52.328;20.878;2023-03-16T07:34:16;1.20;99.90
18252;DHT22;26917;52.328;20.878;2023-03-16T07:36:51;1.40;99.90
18252;DHT22;26917;52.328;20.878;2023-03-16T07:39:22;1.40;99.90
18252;DHT22;26917;52.328;20.878;2023-03-16T07:41:56;1.50;99.90
18252;DHT22;26917;52.328;20.878;2023-03-16T07:44:37;1.40;99.90
18252;DHT22;26917;52.328;20.878;2023-03-16T07:47:05;1.50;99.90
18252;DHT22;26917;52.328;20.878;2023-03-16T07:49:34;1.60;99.90
18252;DHT22;26917;52.328;20.878;2023-03-16T07:52:04;1.60;99.90
18252;DHT22;26917;52.328;20.878;2023-03-16T07:54:39;1.80;99.90
18252;DHT22;26917;52.328;20.878;2023-03-16T07:57:08;2.00;99.90
18252;DHT22;26917;52.328;20.878;2023-03-16T07:59:41;1.90;99.90
18252;DHT22;26917;52.328;20.878;2023-03-16T08:02:13;2.50;99.90
18252;DHT22;26917;52.328;20.878;2023-03-16T08:04:42;1.70;99.90
18252;DHT22;26917;52.328;20.878;2023-03-16T08:07:15;2.00;99.90
18252;DHT22;26917;52.328;20.878;2023-03-16T08:09:53;2.10;99.90
18252;DHT22;26917;52.328;20.878;2023-03-16T08:12:28;2.00;99.90
18252;DHT22;26917;52.328;20.878;2023-03-16T08:14:57;2.30;99.90
18252;DHT22;26917;52.328;20.878;2023-03-16T08:17:29;2.70;99.90
18252;DHT22;26917;52.328;20.878;2023-03-16T08:19:59;3.00;99.90
18252;DHT22;26917;52.328;20.878;2023-03-16T08:22:30;3.80;99.90
18252;DHT22;26917;52.328;20.878;2023-03-16T08:24:59;2.80;99.90
18252;DHT22;26917;52.328;20.878;2023-03-16T08:27:28;3.60;99.90
18252;DHT22;26917;52.328;20.878;2023-03-16T08:30:02;3.00;99.90
18252;DHT22;26917;52.328;20.878;2023-03-16T08:32:33;3.10;99.90
18252;DHT22;26917;52.328;20.878;2023-03-16T08:35:02;3.80;99.90
18252;DHT22;26917;52.328;20.878;2023-03-16T08:37:32;3.40;99.90
18252;DHT22;26917;52.328;20.878;2023-03-16T08:40:01;3.40;99.90
18252;DHT22;26917;52.328;20.878;2023-03-16T08:42:30;3.60;99.90
18252;DHT22;26917;52.328;20.878;2023-03-16T08:45:01;4.30;99.90
18252;DHT22;26917;52.328;20.878;2023-03-16T08:47:39;3.70;99.90
18252;DHT22;26917;52.328;20.878;2023-03-16T08:50:11;3.80;99.90
18252;DHT22;26917;52.328;20.878;2023-03-16T08:52:42;3.80;99.90
18252;DHT22;26917;52.328;20.878;2023-03-16T08:55:11;4.20;99.90
18252;DHT22;26917;52.328;20.878;2023-03-16T08:57:39;4.60;99.90
18252;DHT22;26917;52.328;20.878;2023-03-16T09:00:11;4.70;99.90
18252;DHT22;26917;52.328;20.878;2023-03-16T09:02:43;4.10;99.90
18252;DHT22;26917;52.328;20.878;2023-03-16T09:05:12;4.20;99.90
18252;DHT22;26917;52.328;20.878;2023-03-16T09:07:43;4.30;99.90
18252;DHT22;26917;52.328;20.878;2023-03-16T09:10:14;4.50;99.90
18252;DHT22;26917;52.328;20.878;2023-03-16T09:12:43;4.20;99.90
18252;DHT22;26917;52.328;20.878;2023-03-16T09:15:11;4.60;99.90
18252;DHT22;26917;52.328;20.878;2023-03-16T09:17:41;5.00;99.90
18252;DHT22;26917;52.328;20.878;2023-03-16T09:20:13;5.10;99.90
18252;DHT22;26917;52.328;20.878;2023-03-16T09:22:49;5.20;99.90
18252;DHT22;26917;52.328;20.878;2023-03-16T09:25:18;5.40;99.80
18252;DHT22;26917;52.328;20.878;2023-03-16T09:27:46;5.70;99.40
18252;DHT22;26917;52.328;20.878;2023-03-16T09:30:14;5.90;99.50
18252;DHT22;26917;52.328;20.878;2023-03-16T09:32:44;5.90;97.40
18252;DHT22;26917;52.328;20.878;2023-03-16T09:35:15;6.20;97.30
18252;DHT22;26917;52.328;20.878;2023-03-16T09:37:43;6.50;97.60
18252;DHT22;26917;52.328;20.878;2023-03-16T09:40:33;6.60;97.20
18252;DHT22;26917;52.328;20.878;2023-03-16T09:43:28;6.50;96.80
18252;DHT22;26917;52.328;20.878;2023-03-16T09:46:05;6.80;97.10
18252;DHT22;26917;52.328;20.878;2023-03-16T09:48:37;6.10;97.00
18252;DHT22;26917;52.328;20.878;2023-03-16T09:51:16;5.90;96.60
18252;DHT22;26917;52.328;20.878;2023-03-16T09:53:50;5.70;97.20
18252;DHT22;26917;52.328;20.878;2023-03-16T09:56:28;6.10;97.80
18252;DHT22;26917;52.328;20.878;2023-03-16T09:58:59;6.20;96.50
18252;DHT22;26917;52.328;20.878;2023-03-16T10:01:38;6.00;95.60
18252;DHT22;26917;52.328;20.878;2023-03-16T10:04:15;5.80;96.40
18252;DHT22;26917;52.328;20.878;2023-03-16T10:06:54;5.40;95.90
18252;DHT22;26917;52.328;20.878;2023-03-16T10:09:31;5.90;96.30
18252;DHT22;26917;52.328;20.878;2023-03-16T10:12:03;6.10;96.10
18252;DHT22;26917;52.328;20.878;2023-03-16T10:14:39;6.30;95.80
18252;DHT22;26917;52.328;20.878;2023-03-16T10:17:13;6.40;94.80
18252;DHT22;26917;52.328;20.878;2023-03-16T10:19:46;6.40;95.20
18252;DHT22;26917;52.328;20.878;2023-03-16T10:22:19;6.60;94.50
18252;DHT22;26917;52.328;20.878;2023-03-16T10:24:58;7.10;93.20
18252;DHT22;26917;52.328;20.878;2023-03-16T10:27:31;7.60;92.60
18252;DHT22;26917;52.328;20.878;2023-03-16T10:30:02;7.20;92.40
18252;DHT22;26917;52.328;20.878;2023-03-16T10:32:33;7.60;90.90
18252;DHT22;26917;52.328;20.878;2023-03-16T10:35:09;7.80;90.90
18252;DHT22;26917;52.328;20.878;2023-03-16T10:37:41;7.90;89.60
18252;DHT22;26917;52.328;20.878;2023-03-16T10:40:12;8.10;91.10
18252;DHT22;26917;52.328;20.878;2023-03-16T10:42:42;8.00;88.60
18252;DHT22;26917;52.328;20.878;2023-03-16T10:45:28;8.10;89.10
18252;DHT22;26917;52.328;20.878;2023-03-16T10:48:06;7.70;88.60
18252;DHT22;26917;52.328;20.878;2023-03-16T10:50:35;7.20;89.30
18252;DHT22;26917;52.328;20.878;2023-03-16T10:53:03;6.80;90.00
18252;DHT22;26917;52.328;20.878;2023-03-16T10:55:42;6.50;90.90
18252;DHT22;26917;52.328;20.878;2023-03-16T10:58:22;6.30;90.90
18252;DHT22;26917;52.328;20.878;2023-03-16T11:00:51;6.00;91.80
18252;DHT22;26917;52.328;20.878;2023-03-16T11:03:23;5.90;92.40
18252;DHT22;26917;52.328;20.878;2023-03-16T11:05:59;5.80;92.40
18252;DHT22;26917;52.328;20.878;2023-03-16T11:08:32;5.90;91.10
18252;DHT22;26917;52.328;20.878;2023-03-16T11:11:07;5.90;90.60
18252;DHT22;26917;52.328;20.878;2023-03-16T11:13:43;6.00;90.70
18252;DHT22;26917;52.328;20.878;2023-03-16T11:16:22;6.10;91.50
18252;DHT22;26917;52.328;20.878;2023-03-16T11:18:54;6.30;91.20
18252;DHT22;26917;52.328;20.878;2023-03-16T11:21:33;6.40;91.30
18252;DHT22;26917;52.328;20.878;2023-03-16T11:24:08;6.50;91.00
18252;DHT22;26917;52.328;20.878;2023-03-16T11:26:40;6.60;90.80
18252;DHT22;26917;52.328;20.878;2023-03-16T11:29:18;6.60;90.60
18252;DHT22;26917;52.328;20.878;2023-03-16T11:31:52;6.70;90.60
18252;DHT22;26917;52.328;20.878;2023-03-16T11:34:26;6.80;90.90
18252;DHT22;26917;52.328;20.878;2023-03-16T11:36:56;6.90;91.70
18252;DHT22;26917;52.328;20.878;2023-03-16T11:39:35;7.20;91.90
18252;DHT22;26917;52.328;20.878;2023-03-16T11:42:29;6.90;91.50
18252;DHT22;26917;52.328;20.878;2023-03-16T11:45:09;6.90;92.20
18252;DHT22;26917;52.328;20.878;2023-03-16T11:47:55;6.70;91.90
18252;DHT22;26917;52.328;20.878;2023-03-16T11:50:35;6.50;92.40
18252;DHT22;26917;52.328;20.878;2023-03-16T11:53:17;6.30;92.70
18252;DHT22;26917;52.328;20.878;2023-03-16T11:55:58;6.20;93.20
18252;DHT22;26917;52.328;20.878;2023-03-16T11:58:41;5.80;93.40
18252;DHT22;26917;52.328;20.878;2023-03-16T12:01:16;6.10;93.80
18252;DHT22;26917;52.328;20.878;2023-03-16T12:04:01;5.80;93.70
18252;DHT22;26917;52.328;20.878;2023-03-16T12:06:49;5.80;94.00
18252;DHT22;26917;52.328;20.878;2023-03-16T12:09:45;5.80;93.70
18252;DHT22;26917;52.328;20.878;2023-03-16T12:12:27;6.00;93.90
18252;DHT22;26917;52.328;20.878;2023-03-16T12:18:11;6.00;93.10
18252;DHT22;26917;52.328;20.878;2023-03-16T12:20:47;6.00;93.30
18252;DHT22;26917;52.328;20.878;2023-03-16T12:23:19;6.10;93.40
18252;DHT22;26917;52.328;20.878;2023-03-16T12:25:52;6.30;93.60
18252;DHT22;26917;52.328;20.878;2023-03-16T12:28:23;6.30;93.30
18252;DHT22;26917;52.328;20.878;2023-03-16T12:31:00;6.40;93.30
18252;DHT22;26917;52.328;20.878;2023-03-16T12:33:46;6.40;91.60
18252;DHT22;26917;52.328;20.878;2023-03-16T12:36:40;6.00;91.80
18252;DHT22;26917;52.328;20.878;2023-03-16T12:39:16;6.80;92.40
18252;DHT22;26917;52.328;20.878;2023-03-16T12:41:57;6.10;92.00
18252;DHT22;26917;52.328;20.878;2023-03-16T12:44:32;6.10;92.40
18252;DHT22;26917;52.328;20.878;2023-03-16T12:47:08;6.10;92.70
18252;DHT22;26917;52.328;20.878;2023-03-16T12:49:42;6.10;92.90
18252;DHT22;26917;52.328;20.878;2023-03-16T12:52:12;6.00;93.00
18252;DHT22;26917;52.328;20.878;2023-03-16T12:54:49;6.30;93.10
18252;DHT22;26917;52.328;20.878;2023-03-16T12:57:22;5.90;93.20
18252;DHT22;26917;52.328;20.878;2023-03-16T12:59:54;5.90;92.70
18252;DHT22;26917;52.328;20.878;2023-03-16T13:02:28;5.60;92.60
18252;DHT22;26917;52.328;20.878;2023-03-16T13:05:01;5.80;92.20
18252;DHT22;26917;52.328;20.878;2023-03-16T13:07:35;5.90;92.40
18252;DHT22;26917;52.328;20.878;2023-03-16T13:10:08;5.90;91.90
18252;DHT22;26917;52.328;20.878;2023-03-16T13:12:39;5.80;92.80
18252;DHT22;26917;52.328;20.878;2023-03-16T13:15:25;5.90;92.50
18252;DHT22;26917;52.328;20.878;2023-03-16T13:18:20;5.60;92.60
18252;DHT22;26917;52.328;20.878;2023-03-16T13:20:53;6.10;93.20
18252;DHT22;26917;52.328;20.878;2023-03-16T13:23:25;6.00;93.10
18252;DHT22;26917;52.328;20.878;2023-03-16T13:26:04;5.90;93.70
18252;DHT22;26917;52.328;20.878;2023-03-16T13:28:35;6.10;92.70
18252;DHT22;26917;52.328;20.878;2023-03-16T13:31:05;6.20;92.70
18252;DHT22;26917;52.328;20.878;2023-03-16T13:33:46;6.60;92.20
18252;DHT22;26917;52.328;20.878;2023-03-16T13:36:16;6.80;92.30
18252;DHT22;26917;52.328;20.878;2023-03-16T13:38:55;7.00;91.70
18252;DHT22;26917;52.328;20.878;2023-03-16T13:41:24;7.10;91.90
18252;DHT22;26917;52.328;20.878;2023-03-16T13:43:55;6.90;90.70
18252;DHT22;26917;52.328;20.878;2023-03-16T13:46:27;6.80;91.60
18252;DHT22;26917;52.328;20.878;2023-03-16T13:48:59;6.70;91.30
18252;DHT22;26917;52.328;20.878;2023-03-16T13:51:33;6.50;91.90
18252;DHT22;26917;52.328;20.878;2023-03-16T13:54:04;6.50;91.50
18252;DHT22;26917;52.328;20.878;2023-03-16T13:56:43;6.40;90.80
18252;DHT22;26917;52.328;20.878;2023-03-16T13:59:12;6.40;91.30
18252;DHT22;26917;52.328;20.878;2023-03-16T14:01:43;6.30;91.80
18252;DHT22;26917;52.328;20.878;2023-03-16T14:04:12;6.30;91.50
18252;DHT22;26917;52.328;20.878;2023-03-16T14:06:54;6.30;91.40
18252;DHT22;26917;52.328;20.878;2023-03-16T14:09:25;6.30;90.60
18252;DHT22;26917;52.328;20.878;2023-03-16T14:11:54;6.60;91.00
18252;DHT22;26917;52.328;20.878;2023-03-16T14:14:26;6.20;91.00
18252;DHT22;26917;52.328;20.878;2023-03-16T14:17:00;6.10;91.20
18252;DHT22;26917;52.328;20.878;2023-03-16T14:19:37;6.20;91.00
18252;DHT22;26917;52.328;20.878;2023-03-16T14:22:17;6.10;91.40
18252;DHT22;26917;52.328;20.878;2023-03-16T14:24:52;6.10;91.40
18252;DHT22;26917;52.328;20.878;2023-03-16T14:27:27;6.30;91.10
18252;DHT22;26917;52.328;20.878;2023-03-16T14:29:59;6.00;90.80
18252;DHT22;26917;52.328;20.878;2023-03-16T14:32:28;5.80;91.20
18252;DHT22;26917;52.328;20.878;2023-03-16T14:35:12;5.90;91.40
18252;DHT22;26917;52.328;20.878;2023-03-16T14:37:44;5.80;90.60
18252;DHT22;26917;52.328;20.878;2023-03-16T14:40:33;5.80;90.30
18252;DHT22;26917;52.328;20.878;2023-03-16T14:43:03;5.70;90.80
18252;DHT22;26917;52.328;20.878;2023-03-16T14:45:33;5.70;91.20
18252;DHT22;26917;52.328;20.878;2023-03-16T14:48:04;5.60;91.60
18252;DHT22;26917;52.328;20.878;2023-03-16T14:50:33;5.60;91.50
18252;DHT22;26917;52.328;20.878;2023-03-16T14:53:04;5.60;92.10
18252;DHT22;26917;52.328;20.878;2023-03-16T14:55:33;5.80;91.60
18252;DHT22;26917;52.328;20.878;2023-03-16T14:58:02;5.60;91.90
18252;DHT22;26917;52.328;20.878;2023-03-16T15:00:31;5.70;92.60
18252;DHT22;26917;52.328;20.878;2023-03-16T15:03:14;6.40;93.50
18252;DHT22;26917;52.328;20.878;2023-03-16T15:05:46;5.90;92.80
18252;DHT22;26917;52.328;20.878;2023-03-16T15:08:21;6.00;93.10
18252;DHT22;26917;52.328;20.878;2023-03-16T15:10:49;6.00;93.70
18252;DHT22;26917;52.328;20.878;2023-03-16T15:13:19;6.20;93.50
18252;DHT22;26917;52.328;20.878;2023-03-16T15:16:00;6.10;92.70
18252;DHT22;26917;52.328;20.878;2023-03-16T15:18:30;6.10;92.70
18252;DHT22;26917;52.328;20.878;2023-03-16T15:21:00;6.20;93.60
18252;DHT22;26917;52.328;20.878;2023-03-16T15:23:32;6.30;93.60
18252;DHT22;26917;52.328;20.878;2023-03-16T15:26:00;6.00;93.70
18252;DHT22;26917;52.328;20.878;2023-03-16T15:28:31;5.90;94.10
18252;DHT22;26917;52.328;20.878;2023-03-16T15:31:01;5.90;93.80
18252;DHT22;26917;52.328;20.878;2023-03-16T15:33:30;5.90;94.40
18252;DHT22;26917;52.328;20.878;2023-03-16T15:35:59;6.10;94.20
18252;DHT22;26917;52.328;20.878;2023-03-16T15:38:34;5.80;94.40
18252;DHT22;26917;52.328;20.878;2023-03-16T15:41:08;5.80;94.30
18252;DHT22;26917;52.328;20.878;2023-03-16T15:43:37;5.80;94.50
18252;DHT22;26917;52.328;20.878;2023-03-16T15:46:06;5.90;94.40
18252;DHT22;26917;52.328;20.878;2023-03-16T15:48:34;5.80;95.00
18252;DHT22;26917;52.328;20.878;2023-03-16T15:51:06;5.90;95.50
18252;DHT22;26917;52.328;20.878;2023-03-16T15:53:39;6.20;95.00
18252;DHT22;26917;52.328;20.878;2023-03-16T15:56:12;6.00;94.90
18252;DHT22;26917;52.328;20.878;2023-03-16T15:58:42;5.60;95.10
18252;DHT22;26917;52.328;20.878;2023-03-16T16:01:19;5.60;95.50
18252;DHT22;26917;52.328;20.878;2023-03-16T16:03:48;5.30;95.60